Time;durP1;ratioP1;P1;durP2;ratioP2;P2;SDS_P1;SDS_P2;PMS_P1;PMS_P2;Temp;Humidity;BMP_temperature;BMP_pressure;BME280_temperature;BME280_humidity;BME280_pressure;Samples;Min_cycle;Max_cycle;Signal;HPM_P1;HPM_P2
2022/09/20 00:00:32;;;;;;;5.53;1.83;;;15.90;56.60;;;;;;5049036;28;20441;-88
2022/09/20 00:02:59;;;;;;;2.93;2.10;;;15.70;57.10;;;;;;5033338;28;20474;-86
2022/09/20 00:05:26;;;;;;;2.93;1.57;;;15.80;57.40;;;;;;5031086;28;20460;-87
2022/09/20 00:07:53;;;;;;;2.67;2.43;;;15.80;57.20;;;;;;5019939;28;20510;-87
2022/09/20 00:10:21;;;;;;;4.60;2.07;;;16.00;57.50;;;;;;5033716;28;20462;-84
2022/09/20 00:12:49;;;;;;;5.47;2.00;;;16.00;57.10;;;;;;5007744;28;20473;-87
2022/09/20 00:15:16;;;;;;;2.30;2.10;;;16.00;56.60;;;;;;5010910;28;20465;-86
2022/09/20 00:17:43;;;;;;;1.93;1.80;;;16.10;56.50;;;;;;5031387;28;20456;-85
2022/09/20 00:20:10;;;;;;;7.43;2.20;;;16.10;56.50;;;;;;5036373;28;20462;-85
2022/09/20 00:22:37;;;;;;;6.30;2.50;;;16.10;56.30;;;;;;5033366;28;20485;-85
2022/09/20 00:25:05;;;;;;;3.37;1.93;;;16.10;56.60;;;;;;5049913;28;21213;-86
2022/09/20 00:27:31;;;;;;;3.77;2.47;;;16.20;56.50;;;;;;5030940;28;20469;-86
2022/09/20 00:30:00;;;;;;;5.43;2.10;;;16.10;56.50;;;;;;5009717;28;20540;-86
2022/09/20 00:32:27;;;;;;;2.70;1.90;;;16.10;56.60;;;;;;5036108;28;20476;-86
2022/09/20 00:35:09;;;;;;;3.30;1.70;;;16.10;56.60;;;;;;5036512;28;20555;-86
2022/09/20 00:37:37;;;;;;;3.30;2.07;;;16.10;56.30;;;;;;5033944;28;20952;-88
2022/09/20 00:40:06;;;;;;;2.77;1.67;;;16.00;56.70;;;;;;5041561;28;20453;-86
2022/09/20 00:42:34;;;;;;;2.30;2.10;;;15.90;57.20;;;;;;5040342;28;20481;-86
2022/09/20 00:45:03;;;;;;;3.47;1.80;;;16.00;57.20;;;;;;5031507;28;20442;-86
2022/09/20 00:47:40;;;;;;;5.57;2.17;;;16.00;57.20;;;;;;5024223;28;20465;-86
2022/09/20 00:50:24;;;;;;;2.70;1.77;;;15.80;57.40;;;;;;5025646;28;20524;-86
2022/09/20 00:52:55;;;;;;;2.67;1.60;;;15.80;57.80;;;;;;5049700;28;20485;-86
2022/09/20 00:55:22;;;;;;;7.43;2.27;;;15.90;57.60;;;;;;5049751;28;20908;-84
2022/09/20 00:57:49;;;;;;;3.40;1.83;;;15.70;57.80;;;;;;5041427;28;20444;-87
2022/09/20 01:00:18;;;;;;;7.03;2.53;;;15.80;58.00;;;;;;5032904;28;20482;-87
2022/09/20 01:02:49;;;;;;;3.17;1.80;;;15.80;58.20;;;;;;5031579;28;20465;-85
2022/09/20 01:05:17;;;;;;;3.17;2.13;;;15.80;57.50;;;;;;5033154;28;20453;-86
2022/09/20 01:07:46;;;;;;;8.07;2.27;;;15.80;58.30;;;;;;5018998;28;20877;-86
2022/09/20 01:10:14;;;;;;;4.17;1.90;;;15.80;58.40;;;;;;5033732;28;20448;-86
2022/09/20 01:12:44;;;;;;;4.87;2.10;;;15.90;58.10;;;;;;5032477;28;20465;-86
2022/09/20 01:15:14;;;;;;;6.40;2.10;;;15.90;57.80;;;;;;5016224;28;20453;-86
2022/09/20 01:17:46;;;;;;;4.80;2.10;;;16.00;57.80;;;;;;5049486;28;20986;-85
2022/09/20 01:20:18;;;;;;;2.47;2.07;;;15.90;58.00;;;;;;5050367;28;20469;-87
2022/09/20 01:22:56;;;;;;;4.50;2.50;;;15.80;58.20;;;;;;5052013;28;20471;-85
2022/09/20 01:25:45;;;;;;;3.10;1.90;;;15.80;58.10;;;;;;5050509;28;20472;-86
2022/09/20 01:28:14;;;;;;;5.80;2.20;;;15.70;58.20;;;;;;5051291;28;20495;-87
2022/09/20 01:30:46;;;;;;;6.63;2.17;;;15.70;58.60;;;;;;5013801;28;20457;-86
2022/09/20 01:33:23;;;;;;;4.60;2.83;;;15.80;58.50;;;;;;5034814;28;20449;-87
2022/09/20 01:35:53;;;;;;;4.67;3.73;;;15.80;58.20;;;;;;5050669;28;20459;-86
2022/09/20 01:38:29;;;;;;;4.00;2.03;;;15.80;57.90;;;;;;5050736;28;20528;-86
2022/09/20 01:41:04;;;;;;;7.40;2.30;;;15.80;58.40;;;;;;5036564;28;21129;-88
2022/09/20 01:43:37;;;;;;;3.13;2.33;;;15.70;58.40;;;;;;5051442;28;20483;-87
2022/09/20 01:46:16;;;;;;;4.70;2.00;;;15.70;58.30;;;;;;5030733;28;20496;-86
2022/09/20 01:48:43;;;;;;;3.63;1.80;;;15.80;58.00;;;;;;5049573;28;20835;-85
2022/09/20 01:51:37;;;;;;;3.27;2.00;;;15.80;57.80;;;;;;5054737;28;20967;-86
2022/09/20 01:54:45;;;;;;;4.30;2.03;;;15.70;58.10;;;;;;5034755;28;20446;-87
2022/09/20 01:57:41;;;;;;;5.53;2.70;;;15.70;58.30;;;;;;5025703;28;20445;-87
2022/09/20 02:00:13;;;;;;;10.00;2.30;;;15.70;58.10;;;;;;5050019;28;20456;-87
2022/09/20 02:03:14;;;;;;;4.13;2.40;;;15.60;58.20;;;;;;5039480;28;20844;-86
2022/09/20 02:06:04;;;;;;;4.13;2.10;;;15.50;58.30;;;;;;5042352;28;20491;-87
2022/09/20 02:08:56;;;;;;;3.93;2.47;;;15.50;57.90;;;;;;5009404;28;20479;-86
2022/09/20 02:11:28;;;;;;;2.30;1.90;;;15.50;58.00;;;;;;5050051;28;20476;-87
2022/09/20 02:14:05;;;;;;;3.00;2.17;;;15.50;57.90;;;;;;5032118;28;20441;-84
2022/09/20 02:16:50;;;;;;;2.53;2.33;;;15.40;57.90;;;;;;5031314;28;20463;-86
2022/09/20 02:19:37;;;;;;;7.20;2.50;;;15.30;58.30;;;;;;5030970;28;20436;-85
2022/09/20 02:22:15;;;;;;;11.30;2.20;;;15.40;58.20;;;;;;5023878;28;21012;-87
2022/09/20 02:24:50;;;;;;;7.13;2.73;;;15.50;57.70;;;;;;5015452;28;21257;-87
2022/09/20 02:27:25;;;;;;;4.03;2.23;;;15.50;57.30;;;;;;5048547;28;20947;-85
2022/09/20 02:30:07;;;;;;;3.00;2.60;;;15.60;57.10;;;;;;5040113;28;20472;-86
2022/09/20 02:32:58;;;;;;;7.67;3.07;;;15.70;57.00;;;;;;5051925;28;20477;-83
2022/09/20 02:35:39;;;;;;;6.83;2.97;;;15.50;57.30;;;;;;5051685;28;20974;-88
2022/09/20 02:38:36;;;;;;;3.00;2.50;;;15.40;57.70;;;;;;5055282;28;20453;-85
2022/09/20 02:41:24;;;;;;;4.67;2.33;;;15.50;57.50;;;;;;5033154;28;20465;-86
2022/09/20 02:43:58;;;;;;;4.40;2.33;;;15.40;57.60;;;;;;5043366;28;20449;-86
2022/09/20 02:46:31;;;;;;;2.93;2.03;;;15.50;57.40;;;;;;5053196;28;20456;-88
2022/09/20 02:49:05;;;;;;;5.80;2.60;;;15.60;57.40;;;;;;5022383;28;20470;-86
2022/09/20 02:51:39;;;;;;;7.37;2.40;;;15.60;57.30;;;;;;5052152;28;20538;-86
2022/09/20 02:54:17;;;;;;;4.87;2.90;;;15.60;57.40;;;;;;5045346;28;20488;-87
2022/09/20 02:56:51;;;;;;;3.20;2.30;;;15.60;57.20;;;;;;5052263;28;21000;-87
2022/09/20 02:59:28;;;;;;;9.60;3.30;;;15.60;56.60;;;;;;5036380;28;20440;-86
2022/09/20 03:02:03;;;;;;;8.30;3.63;;;15.60;57.00;;;;;;5055740;28;20560;-86
2022/09/20 03:04:42;;;;;;;2.73;2.50;;;15.60;57.00;;;;;;5034367;28;20448;-87
2022/09/20 03:07:18;;;;;;;3.40;3.00;;;15.50;56.80;;;;;;5050286;28;20963;-85
2022/09/20 03:09:56;;;;;;;4.50;2.03;;;15.50;56.40;;;;;;5034328;28;20461;-86
2022/09/20 03:12:33;;;;;;;4.70;3.10;;;15.50;56.80;;;;;;5034984;28;20480;-85
2022/09/20 03:15:11;;;;;;;5.67;3.47;;;15.30;57.30;;;;;;5038828;28;20452;-87
2022/09/20 03:17:47;;;;;;;5.10;3.00;;;15.00;57.80;;;;;;5025426;28;20444;-87
2022/09/20 03:20:26;;;;;;;4.00;3.47;;;15.00;57.80;;;;;;5035585;28;20460;-86
2022/09/20 03:23:01;;;;;;;6.20;3.50;;;14.90;57.00;;;;;;5037147;28;20481;-86
2022/09/20 03:25:38;;;;;;;4.37;3.40;;;14.90;57.10;;;;;;5035843;28;20448;-86
2022/09/20 03:28:15;;;;;;;7.30;4.20;;;14.90;57.30;;;;;;5044514;28;20969;-86
2022/09/20 03:30:58;;;;;;;6.53;4.30;;;15.00;57.30;;;;;;5015081;28;20862;-86
2022/09/20 03:33:34;;;;;;;6.53;4.80;;;15.00;57.30;;;;;;5052638;28;20953;-87
2022/09/20 03:36:22;;;;;;;5.60;4.00;;;15.10;57.60;;;;;;5055615;28;20531;-87
2022/09/20 03:39:02;;;;;;;10.87;4.83;;;15.10;57.30;;;;;;5036185;28;20508;-85
2022/09/20 03:41:54;;;;;;;6.80;4.67;;;14.90;58.00;;;;;;5052683;28;20475;-86
2022/09/20 03:44:41;;;;;;;10.20;5.17;;;14.90;58.10;;;;;;5042455;28;20458;-87
2022/09/20 03:47:18;;;;;;;8.70;4.60;;;14.90;58.30;;;;;;5051229;28;20448;-87
2022/09/20 03:50:10;;;;;;;7.27;3.83;;;14.90;58.00;;;;;;5035916;28;20466;-86
2022/09/20 03:53:03;;;;;;;8.37;4.53;;;15.00;57.70;;;;;;5009638;28;20473;-86
2022/09/20 03:55:52;;;;;;;6.80;5.00;;;15.00;57.50;;;;;;5058731;28;20449;-87
2022/09/20 03:58:38;;;;;;;7.20;4.50;;;15.00;57.30;;;;;;5054169;28;20453;-86
2022/09/20 04:01:20;;;;;;;9.03;4.37;;;15.10;57.20;;;;;;5028649;28;20521;-86
2022/09/20 04:03:55;;;;;;;8.90;4.23;;;15.10;57.00;;;;;;5053628;28;20448;-86
2022/09/20 04:06:53;;;;;;;6.70;4.20;;;15.00;57.30;;;;;;5052088;28;20436;-87
2022/09/20 04:09:43;;;;;;;6.43;3.90;;;15.00;57.20;;;;;;5051804;28;20473;-86
2022/09/20 04:12:21;;;;;;;18.77;5.20;;;15.10;57.30;;;;;;5016405;28;20491;-87
2022/09/20 04:14:54;;;;;;;9.00;5.00;;;14.80;58.00;;;;;;5032390;28;20544;-87
2022/09/20 04:17:31;;;;;;;15.63;5.90;;;14.50;59.10;;;;;;5051994;28;20458;-87
2022/09/20 04:20:05;;;;;;;7.33;5.00;;;14.60;59.10;;;;;;5052499;28;20444;-86
2022/09/20 04:22:33;;;;;;;11.67;5.30;;;14.50;59.30;;;;;;5034548;28;20461;-87
2022/09/20 04:25:09;;;;;;;5.67;4.53;;;14.40;60.60;;;;;;5020072;28;20458;-86
2022/09/20 04:27:41;;;;;;;10.20;4.70;;;14.50;60.30;;;;;;5041725;28;21011;-87
2022/09/20 04:30:18;;;;;;;6.83;5.10;;;14.70;59.70;;;;;;5019452;28;20480;-87
2022/09/20 04:32:51;;;;;;;9.83;5.20;;;14.70;59.80;;;;;;5019138;28;20738;-86
2022/09/20 04:38:20;;;;;;;7.03;4.50;;;14.90;59.10;;;;;;5017622;28;20774;-84
2022/09/20 04:41:15;;;;;;;12.47;5.70;;;14.90;58.70;;;;;;5031114;28;20514;-87
2022/09/20 04:44:13;;;;;;;8.63;3.80;;;15.00;58.70;;;;;;5034259;28;20473;-86
2022/09/20 04:47:10;;;;;;;5.30;4.63;;;14.90;59.20;;;;;;5033274;28;20450;-87
2022/09/20 04:50:26;;;;;;;8.87;4.63;;;15.00;58.70;;;;;;5028127;28;20469;-86
2022/09/20 04:53:32;;;;;;;8.50;3.87;;;15.10;58.60;;;;;;5032416;28;20533;-88
2022/09/20 04:56:09;;;;;;;11.10;3.70;;;15.00;59.20;;;;;;5023661;28;21038;-86
2022/09/20 04:58:47;;;;;;;7.43;4.37;;;15.10;58.80;;;;;;5031323;28;20441;-88
2022/09/20 05:01:47;;;;;;;6.33;5.73;;;15.10;58.40;;;;;;5051319;28;20531;-85
2022/09/20 05:05:00;;;;;;;8.37;4.97;;;15.00;58.60;;;;;;5007468;28;20468;-87
2022/09/20 05:07:53;;;;;;;14.10;5.60;;;14.90;59.00;;;;;;4977260;28;20455;-87
2022/09/20 05:10:47;;;;;;;9.73;5.27;;;14.70;59.40;;;;;;5035288;28;20475;-87
2022/09/20 05:13:29;;;;;;;8.57;6.40;;;14.60;59.50;;;;;;5031780;28;20476;-89
2022/09/20 05:16:02;;;;;;;8.27;6.47;;;14.70;59.60;;;;;;5033233;28;21004;-88
2022/09/20 05:19:06;;;;;;;12.23;5.90;;;14.70;60.50;;;;;;5021286;28;20467;-88
2022/09/20 05:22:06;;;;;;;8.33;4.53;;;14.80;59.60;;;;;;5026052;28;21028;-88
2022/09/20 05:24:58;;;;;;;16.27;5.93;;;14.80;59.60;;;;;;5016829;28;20454;-88
2022/09/20 05:27:40;;;;;;;15.03;5.93;;;14.80;59.30;;;;;;5052170;28;20460;-90
2022/09/20 05:30:16;;;;;;;6.60;5.30;;;14.80;59.10;;;;;;5057797;28;20998;-89
2022/09/20 05:32:51;;;;;;;8.37;5.30;;;14.80;59.60;;;;;;5038795;28;20481;-89
2022/09/20 05:35:26;;;;;;;6.60;6.00;;;14.90;59.40;;;;;;5035475;28;20453;-88
2022/09/20 05:38:05;;;;;;;10.90;5.50;;;14.90;59.10;;;;;;5033900;28;21001;-88
2022/09/20 05:40:45;;;;;;;7.97;5.30;;;14.90;59.20;;;;;;5040610;28;20456;-87
2022/09/20 05:43:19;;;;;;;7.03;5.03;;;15.00;58.80;;;;;;5033236;28;20841;-87
2022/09/20 05:46:00;;;;;;;7.53;5.70;;;14.80;58.70;;;;;;5016464;28;20523;-88
2022/09/20 05:48:39;;;;;;;9.13;5.60;;;14.80;59.10;;;;;;5050834;28;20765;-87
2022/09/20 05:51:13;;;;;;;13.27;6.27;;;14.80;59.30;;;;;;5036318;28;20468;-86
2022/09/20 05:54:06;;;;;;;8.50;5.00;;;14.90;59.20;;;;;;5034576;28;20445;-88
2022/09/20 05:56:41;;;;;;;5.70;5.07;;;15.00;58.70;;;;;;5052664;28;20436;-88
2022/09/20 05:59:32;;;;;;;16.53;5.70;;;15.10;58.70;;;;;;5034211;28;20445;-91
2022/09/20 06:02:20;;;;;;;8.53;4.97;;;15.10;58.80;;;;;;5053200;28;20472;-87
2022/09/20 06:04:59;;;;;;;10.27;6.07;;;14.90;58.50;;;;;;5038635;28;20441;-88
2022/09/20 06:07:42;;;;;;;6.57;5.17;;;14.90;58.80;;;;;;5036286;28;20455;-87
2022/09/20 06:10:22;;;;;;;10.10;5.77;;;14.90;58.70;;;;;;5024430;28;20459;-88
2022/09/20 06:12:57;;;;;;;8.47;5.17;;;15.10;58.90;;;;;;5057349;28;20472;-90
2022/09/20 06:15:32;;;;;;;6.70;5.90;;;15.10;59.60;;;;;;5059742;28;20456;-88
2022/09/20 06:18:18;;;;;;;11.60;5.23;;;15.20;58.70;;;;;;5061542;28;20441;-89
2022/09/20 06:20:56;;;;;;;10.73;5.13;;;15.10;58.80;;;;;;5059023;28;20472;-84
2022/09/20 06:23:24;;;;;;;7.73;5.13;;;15.20;59.00;;;;;;5041368;28;20456;-89
2022/09/20 06:25:56;;;;;;;7.53;5.20;;;15.10;59.00;;;;;;5059461;28;20604;-86
2022/09/20 06:28:26;;;;;;;8.30;6.10;;;15.10;59.20;;;;;;5036808;28;20448;-87
2022/09/20 06:30:55;;;;;;;6.43;4.80;;;15.10;59.40;;;;;;5060954;28;20476;-87
2022/09/20 06:33:24;;;;;;;9.27;6.10;;;15.10;59.30;;;;;;5044882;28;20932;-88
2022/09/20 06:35:56;;;;;;;6.17;4.77;;;15.10;58.50;;;;;;5032001;28;20453;-87
2022/09/20 06:41:27;;;;;;;9.77;6.17;;;15.40;58.80;;;;;;5055539;28;20460;-87
2022/09/20 06:43:57;;;;;;;7.90;5.50;;;15.30;58.60;;;;;;5041407;28;20539;-87
2022/09/20 06:46:26;;;;;;;11.37;5.67;;;15.40;58.70;;;;;;5029743;28;20438;-88
2022/09/20 06:48:55;;;;;;;9.13;5.27;;;15.50;58.50;;;;;;5032169;28;20452;-87
2022/09/20 06:51:24;;;;;;;7.83;5.33;;;15.50;57.90;;;;;;5029181;28;20481;-89
2022/09/20 06:53:51;;;;;;;10.00;5.77;;;15.60;57.90;;;;;;5039826;28;20715;-87
2022/09/20 06:56:21;;;;;;;7.40;4.80;;;15.60;57.60;;;;;;5034882;28;20952;-88
2022/09/20 06:58:48;;;;;;;17.53;5.00;;;15.60;57.80;;;;;;5040145;28;20503;-88
2022/09/20 07:01:15;;;;;;;9.50;4.93;;;15.70;57.50;;;;;;5040746;28;20489;-88
2022/09/20 07:03:42;;;;;;;10.23;5.17;;;15.60;57.50;;;;;;5037184;28;20476;-88
2022/09/20 07:06:11;;;;;;;5.50;4.87;;;15.60;57.60;;;;;;5026835;28;20459;-87
2022/09/20 07:08:38;;;;;;;7.40;4.77;;;15.50;57.60;;;;;;5056880;28;20907;-88
2022/09/20 07:11:08;;;;;;;8.00;4.90;;;15.60;57.50;;;;;;5059108;28;20840;-88
2022/09/20 07:13:36;;;;;;;7.00;5.23;;;15.70;57.50;;;;;;5038988;28;20523;-88
2022/09/20 07:16:04;;;;;;;9.20;5.20;;;15.80;57.40;;;;;;5029725;28;20453;-87
2022/09/20 07:18:32;;;;;;;8.37;5.13;;;15.90;57.10;;;;;;5040076;28;20464;-87
2022/09/20 07:20:59;;;;;;;6.47;4.20;;;16.00;56.80;;;;;;5026543;28;20434;-87
2022/09/20 07:23:30;;;;;;;5.43;3.97;;;16.00;57.40;;;;;;5057085;28;20825;-87
2022/09/20 07:25:59;;;;;;;13.97;5.77;;;16.10;56.80;;;;;;5039717;28;20468;-90
2022/09/20 07:28:26;;;;;;;7.80;4.83;;;16.00;56.50;;;;;;5038722;28;20457;-89
2022/09/20 07:30:54;;;;;;;10.47;5.20;;;15.80;56.90;;;;;;5030198;28;20468;-88
2022/09/20 07:33:22;;;;;;;7.30;4.37;;;15.90;57.10;;;;;;5062477;28;20446;-87
2022/09/20 07:35:49;;;;;;;5.63;4.40;;;16.10;56.80;;;;;;5017604;28;20444;-89
2022/09/20 07:38:16;;;;;;;8.47;4.23;;;16.30;56.20;;;;;;5011397;28;20484;-90
2022/09/20 07:40:45;;;;;;;8.50;4.43;;;16.30;56.10;;;;;;5057545;28;20509;-87
2022/09/20 07:43:12;;;;;;;5.67;4.10;;;16.40;56.00;;;;;;5040889;28;20562;-87
2022/09/20 07:45:40;;;;;;;4.40;3.20;;;16.20;55.80;;;;;;5040603;28;20438;-88
2022/09/20 07:48:07;;;;;;;9.63;4.03;;;16.30;55.90;;;;;;5040949;28;20445;-88
2022/09/20 07:50:35;;;;;;;10.63;4.23;;;15.80;56.00;;;;;;5038220;28;20466;-90
2022/09/20 07:53:03;;;;;;;4.63;4.07;;;15.80;56.30;;;;;;5026002;28;21442;-90
2022/09/20 07:55:30;;;;;;;4.27;3.30;;;16.00;56.80;;;;;;5061316;28;20438;-91
2022/09/20 07:57:59;;;;;;;7.10;3.97;;;16.00;56.80;;;;;;5046863;28;20873;-88
2022/09/20 08:00:26;;;;;;;6.60;4.10;;;15.70;55.70;;;;;;5039740;28;21237;-88
2022/09/20 08:03:00;;;;;;;7.63;3.87;;;15.50;57.30;;;;;;5031455;28;20553;-89
2022/09/20 08:05:27;;;;;;;7.17;3.80;;;15.20;57.60;;;;;;5057571;28;20479;-91
2022/09/20 08:07:55;;;;;;;5.27;3.60;;;15.20;57.90;;;;;;5023189;28;20445;-88
2022/09/20 08:10:23;;;;;;;10.10;3.70;;;15.40;57.40;;;;;;5039164;28;20464;-90
2022/09/20 08:12:50;;;;;;;7.00;3.50;;;15.60;57.50;;;;;;5029492;28;20473;-89
2022/09/20 08:15:18;;;;;;;12.13;3.73;;;15.60;56.70;;;;;;5057487;28;20446;-88
2022/09/20 08:17:47;;;;;;;5.80;3.10;;;15.90;57.20;;;;;;5059187;28;20932;-88
2022/09/20 08:20:15;;;;;;;10.00;4.40;;;16.10;55.40;;;;;;5017849;28;20528;-86
2022/09/20 08:22:43;;;;;;;13.20;3.47;;;16.30;55.90;;;;;;5056618;28;20818;-89
2022/09/20 08:25:10;;;;;;;8.33;3.70;;;16.60;55.10;;;;;;5040702;28;20446;-88
2022/09/20 08:27:37;;;;;;;10.70;3.30;;;16.50;54.90;;;;;;5019515;28;21005;-88
2022/09/20 08:30:05;;;;;;;9.03;4.53;;;16.50;54.90;;;;;;5044751;28;20483;-88
2022/09/20 08:32:33;;;;;;;5.60;3.57;;;16.60;55.00;;;;;;5030889;28;20507;-89
2022/09/20 08:35:00;;;;;;;7.70;4.17;;;16.60;55.20;;;;;;5024420;28;20429;-88
2022/09/20 08:37:27;;;;;;;5.10;3.13;;;16.60;55.60;;;;;;5011837;28;20461;-88
2022/09/20 08:39:54;;;;;;;6.47;3.73;;;16.40;53.90;;;;;;5011883;28;20441;-89
2022/09/20 08:42:27;;;;;;;4.30;2.73;;;16.40;54.40;;;;;;5038351;28;20968;-89
2022/09/20 08:44:59;;;;;;;7.43;3.57;;;16.60;54.60;;;;;;5040082;28;21251;-89
2022/09/20 08:47:29;;;;;;;3.50;3.20;;;16.70;54.40;;;;;;5006109;28;20473;-90
2022/09/20 08:49:59;;;;;;;4.20;3.30;;;16.80;54.30;;;;;;5043062;28;20452;-88
2022/09/20 08:52:30;;;;;;;8.47;4.10;;;16.90;54.50;;;;;;5030828;28;20469;-88
2022/09/20 08:54:58;;;;;;;11.93;3.33;;;17.00;54.50;;;;;;5016361;28;20458;-89
2022/09/20 08:57:28;;;;;;;6.60;2.90;;;17.00;53.80;;;;;;5037769;28;20491;-90
2022/09/20 08:59:56;;;;;;;4.63;2.43;;;17.00;53.20;;;;;;5041008;28;20442;-87
2022/09/20 09:02:23;;;;;;;3.70;2.00;;;17.20;52.80;;;;;;5038591;28;20468;-87
2022/09/20 09:04:52;;;;;;;4.90;2.83;;;17.00;51.90;;;;;;5053610;28;20968;-88
2022/09/20 09:07:23;;;;;;;3.63;2.37;;;16.80;53.00;;;;;;5061814;28;20453;-91
2022/09/20 09:09:52;;;;;;;5.40;2.30;;;16.90;53.30;;;;;;5044406;28;20549;-90
2022/09/20 09:12:23;;;;;;;9.90;3.10;;;17.00;54.20;;;;;;5023200;28;20529;-92
2022/09/20 09:14:53;;;;;;;9.37;2.30;;;17.20;53.20;;;;;;5040194;28;20973;-89
2022/09/20 09:17:23;;;;;;;7.60;2.30;;;17.20;52.90;;;;;;5031597;28;20949;-88
2022/09/20 09:19:52;;;;;;;3.03;2.57;;;17.00;52.80;;;;;;5055543;28;20474;-89
2022/09/20 09:22:25;;;;;;;5.50;2.30;;;17.00;52.30;;;;;;5040172;28;20809;-88
2022/09/20 09:25:23;;;;;;;5.67;2.93;;;17.00;53.30;;;;;;5035853;28;20516;-89
2022/09/20 09:27:53;;;;;;;4.20;2.10;;;17.00;52.20;;;;;;4986109;28;20449;-90
2022/09/20 09:30:23;;;;;;;17.83;3.80;;;16.90;51.50;;;;;;5013505;28;20482;-89
2022/09/20 09:32:50;;;;;;;9.17;2.80;;;17.10;52.80;;;;;;5032373;28;20511;-87
2022/09/20 09:35:26;;;;;;;3.80;2.40;;;17.20;51.70;;;;;;5037376;28;20434;-87
2022/09/20 09:37:56;;;;;;;4.97;2.60;;;17.50;53.00;;;;;;5036320;28;20459;-89
2022/09/20 09:40:24;;;;;;;8.87;6.10;;;17.60;53.00;;;;;;5031753;28;20809;-89
2022/09/20 09:42:53;;;;;;;3.53;3.03;;;17.60;51.80;;;;;;5043185;28;20558;-88
2022/09/20 09:45:30;;;;;;;7.27;3.93;;;17.60;51.50;;;;;;5041248;28;20461;-89
2022/09/20 09:47:59;;;;;;;6.70;3.40;;;17.60;51.20;;;;;;5020420;28;20460;-88
2022/09/20 09:50:29;;;;;;;6.77;3.20;;;17.60;51.70;;;;;;5009429;28;20503;-88
2022/09/20 09:53:06;;;;;;;6.77;2.50;;;17.70;51.80;;;;;;5011073;28;20481;-88
2022/09/20 09:55:56;;;;;;;7.10;2.87;;;17.80;51.50;;;;;;5012493;28;20445;-88
2022/09/20 09:58:38;;;;;;;6.17;2.83;;;17.90;51.00;;;;;;5055453;28;20460;-88
2022/09/20 10:01:11;;;;;;;4.57;2.47;;;17.90;51.40;;;;;;5044644;28;21339;-88
2022/09/20 10:03:48;;;;;;;5.80;2.40;;;18.00;51.50;;;;;;5026547;28;20448;-88
2022/09/20 10:06:23;;;;;;;4.77;3.17;;;18.00;51.20;;;;;;5028861;28;20445;-89
2022/09/20 10:09:08;;;;;;;10.23;3.00;;;18.10;51.10;;;;;;5048127;28;20460;-88
2022/09/20 10:11:51;;;;;;;6.83;2.20;;;18.00;50.80;;;;;;5043517;28;20473;-90
2022/09/20 10:14:34;;;;;;;10.57;2.53;;;18.00;50.00;;;;;;5043166;28;20449;-88
2022/09/20 10:17:19;;;;;;;3.10;1.60;;;17.90;49.40;;;;;;5039811;28;20447;-88
2022/09/20 10:20:03;;;;;;;3.13;1.50;;;17.80;47.40;;;;;;5036813;28;20449;-89
2022/09/20 10:22:45;;;;;;;7.30;1.50;;;18.00;47.70;;;;;;5041708;28;20532;-87
2022/09/20 10:25:38;;;;;;;2.20;1.40;;;18.00;47.40;;;;;;5025181;28;20440;-89
2022/09/20 10:28:20;;;;;;;2.17;1.33;;;17.80;46.80;;;;;;5041845;28;20449;-88
2022/09/20 10:30:57;;;;;;;3.47;1.33;;;17.90;46.80;;;;;;5008364;28;21004;-88
2022/09/20 10:33:31;;;;;;;6.67;2.00;;;18.10;47.50;;;;;;5017640;28;20528;-89
2022/09/20 10:36:11;;;;;;;13.00;2.17;;;17.90;47.10;;;;;;5035573;28;20605;-91
2022/09/20 10:38:46;;;;;;;4.00;1.50;;;17.60;47.10;;;;;;5039617;28;20445;-88
2022/09/20 10:44:26;;;;;;;2.83;1.50;;;17.90;46.30;;;;;;5048568;28;20440;-88
2022/09/20 10:47:01;;;;;;;7.03;1.57;;;18.30;46.60;;;;;;5027919;28;20885;-87
2022/09/20 10:49:35;;;;;;;3.33;1.43;;;18.30;44.80;;;;;;5026860;28;20437;-89
2022/09/20 10:52:18;;;;;;;3.27;1.43;;;18.40;44.80;;;;;;5046916;28;20477;-89
2022/09/20 10:55:05;;;;;;;3.00;1.90;;;18.60;45.50;;;;;;5059109;28;20445;-91
2022/09/20 10:58:06;;;;;;;6.40;2.13;;;18.80;44.80;;;;;;5030140;28;20483;-90
2022/09/20 11:00:42;;;;;;;5.43;1.80;;;18.50;45.90;;;;;;5023962;28;20449;-89
2022/09/20 11:03:25;;;;;;;3.80;1.70;;;18.20;45.70;;;;;;5048606;28;20468;-89
2022/09/20 11:06:09;;;;;;;3.80;1.70;;;18.10;45.50;;;;;;5058314;28;20445;-88
2022/09/20 11:08:38;;;;;;;4.50;1.67;;;18.00;46.50;;;;;;5045732;28;21402;-89
2022/09/20 11:11:11;;;;;;;4.03;1.63;;;17.90;46.20;;;;;;5029523;28;20992;-88
2022/09/20 11:13:45;;;;;;;3.67;1.73;;;18.20;46.60;;;;;;5033407;28;20532;-91
2022/09/20 11:16:16;;;;;;;2.47;1.93;;;18.40;46.10;;;;;;5036016;28;21091;-90
2022/09/20 11:18:49;;;;;;;5.20;3.10;;;18.50;45.70;;;;;;5060091;28;20452;-88
2022/09/20 11:21:20;;;;;;;6.27;1.67;;;18.60;45.50;;;;;;5045429;28;20765;-89
2022/09/20 11:23:55;;;;;;;6.60;2.17;;;18.30;45.60;;;;;;5045802;28;20437;-90
2022/09/20 11:26:30;;;;;;;5.50;1.90;;;18.20;45.70;;;;;;5032762;28;20463;-88
2022/09/20 11:29:04;;;;;;;5.87;2.13;;;18.30;45.80;;;;;;5064957;28;20455;-89
2022/09/20 11:31:38;;;;;;;3.23;1.57;;;18.30;46.30;;;;;;5047062;28;20485;-88
2022/09/20 11:34:12;;;;;;;6.23;2.03;;;18.40;46.10;;;;;;5044160;28;20464;-88
2022/09/20 11:36:50;;;;;;;7.97;1.53;;;18.70;45.30;;;;;;5021992;28;20837;-90
2022/09/20 11:39:21;;;;;;;5.80;1.67;;;19.00;45.00;;;;;;5042773;28;20441;-89
2022/09/20 11:41:51;;;;;;;3.63;1.30;;;19.20;43.70;;;;;;5044112;28;20551;-91
2022/09/20 11:44:20;;;;;;;5.30;1.60;;;19.30;43.40;;;;;;5046149;28;20484;-90
2022/09/20 11:46:54;;;;;;;2.07;1.47;;;19.30;43.20;;;;;;5063472;28;20450;-89
2022/09/20 11:49:25;;;;;;;2.77;1.50;;;19.30;42.50;;;;;;5040370;28;20446;-90
2022/09/20 11:52:27;;;;;;;6.33;1.67;;;19.20;42.80;;;;;;5061201;28;21226;-89
2022/09/20 11:55:21;;;;;;;2.60;1.43;;;19.00;44.00;;;;;;5038483;28;20464;-86
2022/09/20 11:58:00;;;;;;;4.80;1.60;;;19.30;43.50;;;;;;5042570;28;21048;-91
2022/09/20 12:00:34;;;;;;;3.20;1.90;;;19.50;43.70;;;;;;5038371;28;20618;-88
2022/09/20 12:03:02;;;;;;;4.40;1.83;;;19.40;43.10;;;;;;5045988;28;20521;-89
2022/09/20 12:05:32;;;;;;;4.03;2.63;;;19.10;44.10;;;;;;5019788;28;20569;-88
2022/09/20 12:08:02;;;;;;;7.10;2.20;;;19.10;45.20;;;;;;5026037;28;20445;-88
2022/09/20 12:10:33;;;;;;;8.50;2.40;;;19.50;45.60;;;;;;5059426;28;20457;-89
2022/09/20 12:13:02;;;;;;;3.97;2.33;;;19.80;44.90;;;;;;5024028;28;20488;-88
2022/09/20 12:15:33;;;;;;;7.87;2.20;;;20.20;43.80;;;;;;5057939;28;20790;-88
2022/09/20 12:18:30;;;;;;;7.30;3.27;;;20.40;43.60;;;;;;5042787;28;20463;-88
2022/09/20 12:21:08;;;;;;;3.83;1.67;;;20.40;42.70;;;;;;5035220;28;20456;-89
2022/09/20 12:23:47;;;;;;;4.30;2.17;;;20.70;42.50;;;;;;5042157;28;20536;-91
2022/09/20 12:26:50;;;;;;;3.10;2.00;;;21.20;42.70;;;;;;5036026;28;20817;-89
2022/09/20 12:30:15;;;;;;;7.23;3.30;;;21.60;39.50;;;;;;5018428;28;20761;-88
2022/09/20 12:33:01;;;;;;;2.73;2.20;;;21.30;40.00;;;;;;5045814;28;20480;-90
2022/09/20 12:36:13;;;;;;;6.93;2.20;;;21.00;41.10;;;;;;5049331;28;20441;-89
2022/09/20 12:38:48;;;;;;;5.23;1.60;;;20.40;45.60;;;;;;5030746;28;20434;-88
2022/09/20 12:41:18;;;;;;;6.63;2.73;;;19.70;48.10;;;;;;5010554;28;20453;-90
2022/09/20 12:44:01;;;;;;;10.10;4.40;;;19.40;46.70;;;;;;5031679;28;20467;-88
2022/09/20 12:46:36;;;;;;;9.03;5.63;;;19.40;48.30;;;;;;5041424;28;20453;-89
2022/09/20 12:55:24;;;;;;;4.17;1.90;;;20.00;46.60;;;;;;5040574;28;20448;-91
2022/09/20 12:57:56;;;;;;;5.00;1.80;;;20.00;48.30;;;;;;5041763;28;20441;-89
2022/09/20 13:00:36;;;;;;;4.33;1.97;;;20.00;47.40;;;;;;5030203;28;20445;-90
2022/09/20 13:03:12;;;;;;;3.90;1.90;;;19.90;46.90;;;;;;5046477;28;20828;-88
2022/09/20 13:05:43;;;;;;;3.50;2.17;;;19.90;47.40;;;;;;5013771;28;20468;-89
2022/09/20 13:08:17;;;;;;;5.50;2.10;;;20.20;46.70;;;;;;5024380;28;20453;-88
2022/09/20 13:10:49;;;;;;;2.63;1.67;;;20.50;45.20;;;;;;5041011;28;20521;-89
2022/09/20 13:13:36;;;;;;;1.83;1.50;;;20.60;44.70;;;;;;5024772;28;20462;-91
2022/09/20 13:16:06;;;;;;;3.03;1.73;;;20.80;44.70;;;;;;5055038;28;21022;-90
2022/09/20 13:18:35;;;;;;;2.67;1.53;;;21.00;43.80;;;;;;5043140;28;20438;-89
2022/09/20 13:21:06;;;;;;;2.83;1.50;;;21.30;43.90;;;;;;5028933;28;20452;-91
2022/09/20 13:23:45;;;;;;;2.80;1.50;;;21.60;40.20;;;;;;5027148;28;20441;-88
2022/09/20 13:26:14;;;;;;;3.50;1.40;;;21.60;39.90;;;;;;5035847;28;21062;-89
2022/09/20 13:28:48;;;;;;;4.70;2.10;;;21.50;40.20;;;;;;5024862;28;20449;-87
2022/09/20 13:31:34;;;;;;;6.40;1.30;;;21.60;39.60;;;;;;5036183;28;20465;-89
2022/09/20 13:34:23;;;;;;;1.83;1.40;;;21.50;40.20;;;;;;5037212;28;20982;-88
2022/09/20 13:36:57;;;;;;;3.00;1.73;;;21.70;40.90;;;;;;5036034;28;20453;-88
2022/09/20 13:39:31;;;;;;;3.83;1.43;;;21.90;39.70;;;;;;5051370;28;20443;-88
2022/09/20 13:42:05;;;;;;;3.50;1.50;;;22.10;40.10;;;;;;5022661;28;20487;-88
2022/09/20 13:44:33;;;;;;;2.30;1.70;;;22.30;40.40;;;;;;5052057;28;20497;-88
2022/09/20 13:47:01;;;;;;;2.40;1.63;;;22.40;37.40;;;;;;5027788;28;20824;-88